sensor_id;sensor_type;location;lat;lon;timestamp;pressure;altitude;pressure_sealevel;temperature;humidity
46464;BME280;32161;48.148;-1.554;2023-05-08T00:00:36;101643.69;;;14.27;94.37
46464;BME280;32161;48.148;-1.554;2023-05-08T00:03:04;101644.88;;;14.31;94.03
46464;BME280;32161;48.148;-1.554;2023-05-08T00:05:31;101636.44;;;14.33;93.99
46464;BME280;32161;48.148;-1.554;2023-05-08T00:08:00;101640.50;;;14.30;94.05
46464;BME280;32161;48.148;-1.554;2023-05-08T00:10:28;101639.53;;;14.36;93.37
46464;BME280;32161;48.148;-1.554;2023-05-08T00:12:56;101638.25;;;14.39;92.91
46464;BME280;32161;48.148;-1.554;2023-05-08T00:15:24;101631.78;;;14.33;93.35
46464;BME280;32161;48.148;-1.554;2023-05-08T00:17:51;101643.44;;;14.29;93.47
46464;BME280;32161;48.148;-1.554;2023-05-08T00:20:19;101633.34;;;14.29;93.82
46464;BME280;32161;48.148;-1.554;2023-05-08T00:22:47;101631.22;;;14.31;93.81
46464;BME280;32161;48.148;-1.554;2023-05-08T00:25:16;101634.78;;;14.32;93.51
46464;BME280;32161;48.148;-1.554;2023-05-08T00:27:43;101627.66;;;14.31;93.32
46464;BME280;32161;48.148;-1.554;2023-05-08T00:30:12;101625.75;;;14.31;93.33
46464;BME280;32161;48.148;-1.554;2023-05-08T00:32:39;101626.13;;;14.35;93.15
46464;BME280;32161;48.148;-1.554;2023-05-08T00:35:08;101634.19;;;14.30;93.14
46464;BME280;32161;48.148;-1.554;2023-05-08T00:37:35;101635.22;;;14.29;93.58
46464;BME280;32161;48.148;-1.554;2023-05-08T00:40:08;101638.22;;;14.27;93.57
46464;BME280;32161;48.148;-1.554;2023-05-08T00:42:37;101625.25;;;14.23;93.29
46464;BME280;32161;48.148;-1.554;2023-05-08T00:45:06;101632.38;;;14.24;93.55
46464;BME280;32161;48.148;-1.554;2023-05-08T00:47:35;101632.13;;;14.25;93.72
46464;BME280;32161;48.148;-1.554;2023-05-08T00:50:03;101626.44;;;14.27;94.04
46464;BME280;32161;48.148;-1.554;2023-05-08T00:52:32;101622.03;;;14.26;94.00
46464;BME280;32161;48.148;-1.554;2023-05-08T00:55:01;101616.91;;;14.29;94.17
46464;BME280;32161;48.148;-1.554;2023-05-08T00:57:32;101618.97;;;14.34;94.29
46464;BME280;32161;48.148;-1.554;2023-05-08T01:00:04;101625.88;;;14.36;94.07
46464;BME280;32161;48.148;-1.554;2023-05-08T01:02:33;101617.19;;;14.39;93.83
46464;BME280;32161;48.148;-1.554;2023-05-08T01:05:02;101614.09;;;14.36;94.15
46464;BME280;32161;48.148;-1.554;2023-05-08T01:07:30;101618.84;;;14.40;94.37
46464;BME280;32161;48.148;-1.554;2023-05-08T01:09:58;101612.81;;;14.38;94.10
46464;BME280;32161;48.148;-1.554;2023-05-08T01:12:33;101614.00;;;14.43;94.22
46464;BME280;32161;48.148;-1.554;2023-05-08T01:15:14;101612.22;;;14.48;93.73
46464;BME280;32161;48.148;-1.554;2023-05-08T01:17:56;101610.56;;;14.47;93.86
46464;BME280;32161;48.148;-1.554;2023-05-08T01:20:37;101604.72;;;14.44;94.02
46464;BME280;32161;48.148;-1.554;2023-05-08T01:23:40;101606.38;;;14.45;94.57
46464;BME280;32161;48.148;-1.554;2023-05-08T01:27:08;101609.28;;;14.50;95.17
46464;BME280;32161;48.148;-1.554;2023-05-08T01:30:21;101607.50;;;14.55;95.00
46464;BME280;32161;48.148;-1.554;2023-05-08T01:33:01;101604.75;;;14.55;95.23
46464;BME280;32161;48.148;-1.554;2023-05-08T01:35:33;101608.34;;;14.56;95.11
46464;BME280;32161;48.148;-1.554;2023-05-08T01:38:08;101605.84;;;14.54;95.08
46464;BME280;32161;48.148;-1.554;2023-05-08T01:40:44;101605.00;;;14.54;95.65
46464;BME280;32161;48.148;-1.554;2023-05-08T01:43:24;101610.59;;;14.59;95.36
46464;BME280;32161;48.148;-1.554;2023-05-08T01:45:54;101600.75;;;14.58;95.31
46464;BME280;32161;48.148;-1.554;2023-05-08T01:48:27;101595.13;;;14.53;95.58
46464;BME280;32161;48.148;-1.554;2023-05-08T01:51:03;101588.59;;;14.54;95.76
46464;BME280;32161;48.148;-1.554;2023-05-08T01:53:37;101583.13;;;14.54;96.29
46464;BME280;32161;48.148;-1.554;2023-05-08T01:56:11;101589.91;;;14.51;97.13
46464;BME280;32161;48.148;-1.554;2023-05-08T01:58:41;101589.44;;;14.54;97.04
46464;BME280;32161;48.148;-1.554;2023-05-08T02:01:12;101587.78;;;14.53;96.69
46464;BME280;32161;48.148;-1.554;2023-05-08T02:03:42;101587.16;;;14.51;96.40
46464;BME280;32161;48.148;-1.554;2023-05-08T02:06:13;101586.06;;;14.52;96.07
46464;BME280;32161;48.148;-1.554;2023-05-08T02:08:43;101603.09;;;14.54;95.62
46464;BME280;32161;48.148;-1.554;2023-05-08T02:11:12;101594.91;;;14.54;95.88
46464;BME280;32161;48.148;-1.554;2023-05-08T02:13:41;101589.78;;;14.58;95.89
46464;BME280;32161;48.148;-1.554;2023-05-08T02:16:10;101583.00;;;14.60;95.70
46464;BME280;32161;48.148;-1.554;2023-05-08T02:18:50;101595.25;;;14.58;95.60
46464;BME280;32161;48.148;-1.554;2023-05-08T02:21:19;101598.22;;;14.56;95.78
46464;BME280;32161;48.148;-1.554;2023-05-08T02:23:47;101595.84;;;14.60;95.48
46464;BME280;32161;48.148;-1.554;2023-05-08T02:26:16;101588.25;;;14.62;95.35
46464;BME280;32161;48.148;-1.554;2023-05-08T02:28:45;101579.56;;;14.65;95.00
46464;BME280;32161;48.148;-1.554;2023-05-08T02:31:14;101580.75;;;14.69;94.80
46464;BME280;32161;48.148;-1.554;2023-05-08T02:33:44;101585.03;;;14.65;94.52
46464;BME280;32161;48.148;-1.554;2023-05-08T02:36:17;101586.59;;;14.61;94.64
46464;BME280;32161;48.148;-1.554;2023-05-08T02:38:49;101581.69;;;14.63;94.63
46464;BME280;32161;48.148;-1.554;2023-05-08T02:41:19;101573.13;;;14.59;94.56
46464;BME280;32161;48.148;-1.554;2023-05-08T02:43:48;101577.41;;;14.55;94.49
46464;BME280;32161;48.148;-1.554;2023-05-08T02:46:22;101580.75;;;14.57;95.27
46464;BME280;32161;48.148;-1.554;2023-05-08T02:48:59;101575.41;;;14.62;95.74
46464;BME280;32161;48.148;-1.554;2023-05-08T02:51:38;101578.75;;;14.64;95.82
46464;BME280;32161;48.148;-1.554;2023-05-08T02:54:16;101580.41;;;14.65;95.65
46464;BME280;32161;48.148;-1.554;2023-05-08T02:56:57;101581.22;;;14.66;95.00
46464;BME280;32161;48.148;-1.554;2023-05-08T02:59:30;101586.34;;;14.62;95.00
46464;BME280;32161;48.148;-1.554;2023-05-08T03:02:08;101586.59;;;14.61;95.47
46464;BME280;32161;48.148;-1.554;2023-05-08T03:04:48;101580.25;;;14.60;95.82
46464;BME280;32161;48.148;-1.554;2023-05-08T03:07:22;101575.66;;;14.61;95.96
46464;BME280;32161;48.148;-1.554;2023-05-08T03:09:59;101584.22;;;14.64;95.65
46464;BME280;32161;48.148;-1.554;2023-05-08T03:12:31;101568.84;;;14.63;95.76
46464;BME280;32161;48.148;-1.554;2023-05-08T03:15:05;101567.06;;;14.69;95.41
46464;BME280;32161;48.148;-1.554;2023-05-08T03:17:34;101574.47;;;14.69;95.23
46464;BME280;32161;48.148;-1.554;2023-05-08T03:20:08;101569.81;;;14.69;95.40
46464;BME280;32161;48.148;-1.554;2023-05-08T03:22:39;101560.16;;;14.67;95.33
46464;BME280;32161;48.148;-1.554;2023-05-08T03:25:09;101567.28;;;14.68;95.78
46464;BME280;32161;48.148;-1.554;2023-05-08T03:27:39;101569.94;;;14.62;95.70
46464;BME280;32161;48.148;-1.554;2023-05-08T03:30:09;101565.06;;;14.64;95.41
46464;BME280;32161;48.148;-1.554;2023-05-08T03:32:38;101566.09;;;14.63;95.81
46464;BME280;32161;48.148;-1.554;2023-05-08T03:35:08;101573.50;;;14.63;95.91
46464;BME280;32161;48.148;-1.554;2023-05-08T03:37:37;101578.75;;;14.64;95.93
46464;BME280;32161;48.148;-1.554;2023-05-08T03:40:07;101563.63;;;14.62;96.17
46464;BME280;32161;48.148;-1.554;2023-05-08T03:42:35;101571.84;;;14.62;96.32
46464;BME280;32161;48.148;-1.554;2023-05-08T03:45:04;101573.75;;;14.61;96.39
46464;BME280;32161;48.148;-1.554;2023-05-08T03:47:35;101576.13;;;14.58;96.66
46464;BME280;32161;48.148;-1.554;2023-05-08T03:50:04;101577.41;;;14.55;97.08
46464;BME280;32161;48.148;-1.554;2023-05-08T03:52:34;101563.16;;;14.53;97.24
46464;BME280;32161;48.148;-1.554;2023-05-08T03:55:01;101568.63;;;14.53;96.83
46464;BME280;32161;48.148;-1.554;2023-05-08T03:57:35;101562.06;;;14.54;97.07
46464;BME280;32161;48.148;-1.554;2023-05-08T04:00:13;101567.91;;;14.58;97.19
46464;BME280;32161;48.148;-1.554;2023-05-08T04:02:51;101558.38;;;14.60;96.96
46464;BME280;32161;48.148;-1.554;2023-05-08T04:05:29;101560.28;;;14.60;97.11
46464;BME280;32161;48.148;-1.554;2023-05-08T04:08:13;101555.88;;;14.59;97.02
46464;BME280;32161;48.148;-1.554;2023-05-08T04:10:48;101545.41;;;14.56;96.77
46464;BME280;32161;48.148;-1.554;2023-05-08T04:13:23;101548.97;;;14.56;97.34
46464;BME280;32161;48.148;-1.554;2023-05-08T04:16:04;101551.25;;;14.59;96.51
46464;BME280;32161;48.148;-1.554;2023-05-08T04:18:37;101549.13;;;14.61;96.63
46464;BME280;32161;48.148;-1.554;2023-05-08T04:21:10;101553.50;;;14.62;95.61
46464;BME280;32161;48.148;-1.554;2023-05-08T04:23:41;101550.78;;;14.62;95.59
46464;BME280;32161;48.148;-1.554;2023-05-08T04:26:11;101557.78;;;14.58;95.79
46464;BME280;32161;48.148;-1.554;2023-05-08T04:28:40;101561.34;;;14.59;96.51
46464;BME280;32161;48.148;-1.554;2023-05-08T04:31:08;101567.91;;;14.58;96.77
46464;BME280;32161;48.148;-1.554;2023-05-08T04:33:36;101565.16;;;14.58;96.83
46464;BME280;32161;48.148;-1.554;2023-05-08T04:36:05;101567.06;;;14.57;96.94
46464;BME280;32161;48.148;-1.554;2023-05-08T04:38:37;101557.91;;;14.52;97.34
46464;BME280;32161;48.148;-1.554;2023-05-08T04:41:06;101545.88;;;14.53;97.29
46464;BME280;32161;48.148;-1.554;2023-05-08T04:43:34;101554.94;;;14.53;97.58
46464;BME280;32161;48.148;-1.554;2023-05-08T04:46:04;101551.59;;;14.51;98.12
46464;BME280;32161;48.148;-1.554;2023-05-08T04:48:32;101552.03;;;14.48;97.96
46464;BME280;32161;48.148;-1.554;2023-05-08T04:50:59;101553.75;;;14.49;97.96
46464;BME280;32161;48.148;-1.554;2023-05-08T04:53:27;101546.94;;;14.52;98.11
46464;BME280;32161;48.148;-1.554;2023-05-08T04:55:55;101548.38;;;14.54;98.08
46464;BME280;32161;48.148;-1.554;2023-05-08T04:58:25;101563.25;;;14.58;97.96
46464;BME280;32161;48.148;-1.554;2023-05-08T05:00:53;101568.47;;;14.60;98.08
46464;BME280;32161;48.148;-1.554;2023-05-08T05:03:21;101573.97;;;14.60;98.37
46464;BME280;32161;48.148;-1.554;2023-05-08T05:05:49;101577.06;;;14.63;98.48
46464;BME280;32161;48.148;-1.554;2023-05-08T05:08:23;101582.31;;;14.65;98.50
46464;BME280;32161;48.148;-1.554;2023-05-08T05:10:51;101588.34;;;14.67;98.00
46464;BME280;32161;48.148;-1.554;2023-05-08T05:13:18;101584.53;;;14.68;97.97
46464;BME280;32161;48.148;-1.554;2023-05-08T05:15:47;101587.91;;;14.70;97.65
46464;BME280;32161;48.148;-1.554;2023-05-08T05:18:16;101602.78;;;14.74;97.77
46464;BME280;32161;48.148;-1.554;2023-05-08T05:20:44;101598.94;;;14.75;97.62
46464;BME280;32161;48.148;-1.554;2023-05-08T05:23:12;101607.53;;;14.79;97.70
46464;BME280;32161;48.148;-1.554;2023-05-08T05:25:40;101603.50;;;14.81;97.75
46464;BME280;32161;48.148;-1.554;2023-05-08T05:28:08;101604.94;;;14.84;97.77
46464;BME280;32161;48.148;-1.554;2023-05-08T05:30:35;101591.81;;;14.86;97.54
46464;BME280;32161;48.148;-1.554;2023-05-08T05:33:04;101601.94;;;14.85;97.82
46464;BME280;32161;48.148;-1.554;2023-05-08T05:35:32;101605.28;;;14.87;97.69
46464;BME280;32161;48.148;-1.554;2023-05-08T05:37:59;101598.47;;;14.90;97.38
46464;BME280;32161;48.148;-1.554;2023-05-08T05:40:27;101604.56;;;14.92;97.58
46464;BME280;32161;48.148;-1.554;2023-05-08T05:42:54;101606.84;;;14.95;97.91
46464;BME280;32161;48.148;-1.554;2023-05-08T05:45:22;101607.16;;;14.99;97.69
46464;BME280;32161;48.148;-1.554;2023-05-08T05:47:49;101601.22;;;15.02;97.57
46464;BME280;32161;48.148;-1.554;2023-05-08T05:50:20;101617.78;;;15.07;97.42
46464;BME280;32161;48.148;-1.554;2023-05-08T05:52:48;101615.03;;;15.07;97.37
46464;BME280;32161;48.148;-1.554;2023-05-08T05:55:16;101614.53;;;15.10;97.04
46464;BME280;32161;48.148;-1.554;2023-05-08T05:57:44;101614.06;;;15.13;96.86
46464;BME280;32161;48.148;-1.554;2023-05-08T06:00:12;101617.41;;;15.15;96.98
46464;BME280;32161;48.148;-1.554;2023-05-08T06:02:40;101615.25;;;15.17;97.22
46464;BME280;32161;48.148;-1.554;2023-05-08T06:05:09;101621.00;;;15.16;97.25
46464;BME280;32161;48.148;-1.554;2023-05-08T06:07:38;101618.25;;;15.16;97.54
46464;BME280;32161;48.148;-1.554;2023-05-08T06:10:07;101623.72;;;15.16;97.91
46464;BME280;32161;48.148;-1.554;2023-05-08T06:12:35;101626.69;;;15.14;98.02
46464;BME280;32161;48.148;-1.554;2023-05-08T06:15:03;101621.56;;;15.18;98.26
46464;BME280;32161;48.148;-1.554;2023-05-08T06:17:31;101621.34;;;15.19;98.23
46464;BME280;32161;48.148;-1.554;2023-05-08T06:19:58;101626.94;;;15.24;98.23
46464;BME280;32161;48.148;-1.554;2023-05-08T06:22:26;101633.84;;;15.27;98.10
46464;BME280;32161;48.148;-1.554;2023-05-08T06:24:55;101633.00;;;15.26;98.08
46464;BME280;32161;48.148;-1.554;2023-05-08T06:27:23;101640.72;;;15.29;97.97
46464;BME280;32161;48.148;-1.554;2023-05-08T06:29:51;101641.09;;;15.33;97.79
46464;BME280;32161;48.148;-1.554;2023-05-08T06:32:19;101640.84;;;15.34;97.52
46464;BME280;32161;48.148;-1.554;2023-05-08T06:34:47;101645.25;;;15.35;97.42
46464;BME280;32161;48.148;-1.554;2023-05-08T06:37:15;101646.69;;;15.38;97.55
46464;BME280;32161;48.148;-1.554;2023-05-08T06:39:42;101640.97;;;15.39;97.51
46464;BME280;32161;48.148;-1.554;2023-05-08T06:42:11;101642.41;;;15.42;97.71
46464;BME280;32161;48.148;-1.554;2023-05-08T06:44:39;101639.66;;;15.42;97.72
46464;BME280;32161;48.148;-1.554;2023-05-08T06:47:06;101634.03;;;15.37;97.45
46464;BME280;32161;48.148;-1.554;2023-05-08T06:49:35;101633.47;;;15.35;98.32
46464;BME280;32161;48.148;-1.554;2023-05-08T06:52:03;101636.44;;;15.33;98.93
46464;BME280;32161;48.148;-1.554;2023-05-08T06:54:30;101632.63;;;15.34;99.17
46464;BME280;32161;48.148;-1.554;2023-05-08T06:56:58;101622.50;;;15.35;99.31
46464;BME280;32161;48.148;-1.554;2023-05-08T06:59:27;101620.59;;;15.35;99.87
46464;BME280;32161;48.148;-1.554;2023-05-08T07:01:55;101626.91;;;15.36;100.00
46464;BME280;32161;48.148;-1.554;2023-05-08T07:04:22;101623.69;;;15.39;99.97
46464;BME280;32161;48.148;-1.554;2023-05-08T07:06:50;101622.88;;;15.38;99.62
46464;BME280;32161;48.148;-1.554;2023-05-08T07:09:17;101631.31;;;15.37;99.96
46464;BME280;32161;48.148;-1.554;2023-05-08T07:11:45;101636.78;;;15.37;100.00
46464;BME280;32161;48.148;-1.554;2023-05-08T07:14:13;101638.69;;;15.36;99.71
46464;BME280;32161;48.148;-1.554;2023-05-08T07:16:42;101642.50;;;15.35;99.96
46464;BME280;32161;48.148;-1.554;2023-05-08T07:19:10;101646.09;;;15.36;99.74
46464;BME280;32161;48.148;-1.554;2023-05-08T07:21:37;101640.03;;;15.34;99.64
46464;BME280;32161;48.148;-1.554;2023-05-08T07:24:06;101633.38;;;15.30;99.87
46464;BME280;32161;48.148;-1.554;2023-05-08T07:26:34;101638.84;;;15.30;100.00
46464;BME280;32161;48.148;-1.554;2023-05-08T07:29:01;101641.34;;;15.31;99.69
46464;BME280;32161;48.148;-1.554;2023-05-08T07:31:29;101647.38;;;15.33;99.95
46464;BME280;32161;48.148;-1.554;2023-05-08T07:33:58;101651.56;;;15.36;100.00
46464;BME280;32161;48.148;-1.554;2023-05-08T07:36:26;101653.22;;;15.37;100.00
46464;BME280;32161;48.148;-1.554;2023-05-08T07:38:53;101653.47;;;15.35;100.00
46464;BME280;32161;48.148;-1.554;2023-05-08T07:41:21;101654.31;;;15.36;100.00
46464;BME280;32161;48.148;-1.554;2023-05-08T07:43:49;101649.63;;;15.48;100.00
46464;BME280;32161;48.148;-1.554;2023-05-08T07:46:17;101667.63;;;15.56;100.00
46464;BME280;32161;48.148;-1.554;2023-05-08T07:48:45;101660.94;;;15.52;99.76
46464;BME280;32161;48.148;-1.554;2023-05-08T07:51:14;101664.28;;;15.54;100.00
46464;BME280;32161;48.148;-1.554;2023-05-08T07:53:42;101652.84;;;15.57;100.00
46464;BME280;32161;48.148;-1.554;2023-05-08T07:56:09;101664.41;;;15.59;99.92
46464;BME280;32161;48.148;-1.554;2023-05-08T07:58:37;101658.69;;;15.60;100.00
46464;BME280;32161;48.148;-1.554;2023-05-08T08:01:05;101657.84;;;15.60;100.00
46464;BME280;32161;48.148;-1.554;2023-05-08T08:03:33;101659.66;;;15.66;100.00
46464;BME280;32161;48.148;-1.554;2023-05-08T08:06:00;101656.53;;;15.74;100.00
46464;BME280;32161;48.148;-1.554;2023-05-08T08:08:29;101653.66;;;15.81;100.00
46464;BME280;32161;48.148;-1.554;2023-05-08T08:10:57;101654.22;;;15.83;100.00
46464;BME280;32161;48.148;-1.554;2023-05-08T08:13:24;101652.09;;;15.85;100.00
46464;BME280;32161;48.148;-1.554;2023-05-08T08:15:52;101654.72;;;15.92;99.91
46464;BME280;32161;48.148;-1.554;2023-05-08T08:18:19;101655.63;;;15.97;100.00
46464;BME280;32161;48.148;-1.554;2023-05-08T08:20:47;101654.41;;;16.05;100.00
46464;BME280;32161;48.148;-1.554;2023-05-08T08:23:15;101648.44;;;16.08;99.33
46464;BME280;32161;48.148;-1.554;2023-05-08T08:25:44;101658.03;;;16.22;98.23
46464;BME280;32161;48.148;-1.554;2023-05-08T08:28:11;101658.47;;;16.31;97.87
46464;BME280;32161;48.148;-1.554;2023-05-08T08:30:39;101654.16;;;16.35;97.90
46464;BME280;32161;48.148;-1.554;2023-05-08T08:33:06;101654.97;;;16.35;96.95
46464;BME280;32161;48.148;-1.554;2023-05-08T08:35:34;101656.56;;;16.31;97.98
46464;BME280;32161;48.148;-1.554;2023-05-08T08:38:02;101660.97;;;16.32;98.17
46464;BME280;32161;48.148;-1.554;2023-05-08T08:40:29;101659.66;;;16.35;97.84
46464;BME280;32161;48.148;-1.554;2023-05-08T08:42:58;101666.31;;;16.39;97.89
46464;BME280;32161;48.148;-1.554;2023-05-08T08:45:26;101658.97;;;16.45;98.31
46464;BME280;32161;48.148;-1.554;2023-05-08T08:47:54;101657.19;;;16.50;97.96
46464;BME280;32161;48.148;-1.554;2023-05-08T08:50:25;101670.97;;;16.55;98.25
46464;BME280;32161;48.148;-1.554;2023-05-08T08:53:00;101669.66;;;16.58;98.25
46464;BME280;32161;48.148;-1.554;2023-05-08T08:55:32;101669.50;;;16.65;98.53
46464;BME280;32161;48.148;-1.554;2023-05-08T08:58:17;101673.28;;;16.75;98.51
46464;BME280;32161;48.148;-1.554;2023-05-08T09:00:49;101667.88;;;16.80;97.08
46464;BME280;32161;48.148;-1.554;2023-05-08T09:03:17;101672.88;;;16.83;95.17
46464;BME280;32161;48.148;-1.554;2023-05-08T09:05:45;101671.88;;;16.90;93.52
46464;BME280;32161;48.148;-1.554;2023-05-08T09:08:14;101662.63;;;16.96;93.54
46464;BME280;32161;48.148;-1.554;2023-05-08T09:10:42;101659.13;;;17.00;93.18
46464;BME280;32161;48.148;-1.554;2023-05-08T09:13:11;101660.03;;;17.06;92.71
46464;BME280;32161;48.148;-1.554;2023-05-08T09:15:38;101652.56;;;17.18;91.97
46464;BME280;32161;48.148;-1.554;2023-05-08T09:18:06;101672.50;;;17.30;91.22
46464;BME280;32161;48.148;-1.554;2023-05-08T09:20:34;101663.88;;;17.44;90.47
46464;BME280;32161;48.148;-1.554;2023-05-08T09:23:01;101665.38;;;17.51;90.51
46464;BME280;32161;48.148;-1.554;2023-05-08T09:25:41;101660.78;;;17.57;88.29
46464;BME280;32161;48.148;-1.554;2023-05-08T09:28:21;101654.75;;;17.60;88.07
46464;BME280;32161;48.148;-1.554;2023-05-08T09:30:50;101657.00;;;17.63;87.17
46464;BME280;32161;48.148;-1.554;2023-05-08T09:33:19;101667.00;;;17.69;86.41
46464;BME280;32161;48.148;-1.554;2023-05-08T09:35:47;101657.72;;;17.75;85.93
46464;BME280;32161;48.148;-1.554;2023-05-08T09:38:34;101653.38;;;17.79;84.78
46464;BME280;32161;48.148;-1.554;2023-05-08T09:41:06;101651.66;;;17.73;84.12
46464;BME280;32161;48.148;-1.554;2023-05-08T09:43:36;101639.94;;;17.61;84.27
46464;BME280;32161;48.148;-1.554;2023-05-08T09:46:23;101632.19;;;17.58;84.92
46464;BME280;32161;48.148;-1.554;2023-05-08T09:48:53;101626.25;;;17.66;84.20
46464;BME280;32161;48.148;-1.554;2023-05-08T09:51:21;101621.63;;;17.72;82.35
46464;BME280;32161;48.148;-1.554;2023-05-08T09:53:50;101624.84;;;17.64;81.29
46464;BME280;32161;48.148;-1.554;2023-05-08T09:56:36;101619.81;;;17.77;83.14
46464;BME280;32161;48.148;-1.554;2023-05-08T09:59:23;101618.91;;;17.94;81.09
46464;BME280;32161;48.148;-1.554;2023-05-08T10:01:51;101610.72;;;17.99;81.36
46464;BME280;32161;48.148;-1.554;2023-05-08T10:04:31;101606.91;;;18.05;79.90
46464;BME280;32161;48.148;-1.554;2023-05-08T10:06:59;101611.94;;;18.13;80.15
46464;BME280;32161;48.148;-1.554;2023-05-08T10:09:27;101609.59;;;18.22;78.77
46464;BME280;32161;48.148;-1.554;2023-05-08T10:11:55;101604.44;;;18.30;78.92
46464;BME280;32161;48.148;-1.554;2023-05-08T10:14:24;101607.81;;;18.38;78.84
46464;BME280;32161;48.148;-1.554;2023-05-08T10:16:53;101599.91;;;18.51;80.39
46464;BME280;32161;48.148;-1.554;2023-05-08T10:19:22;101601.88;;;18.56;79.10
46464;BME280;32161;48.148;-1.554;2023-05-08T10:21:54;101597.28;;;18.67;75.48
46464;BME280;32161;48.148;-1.554;2023-05-08T10:24:27;101593.69;;;18.61;77.49
46464;BME280;32161;48.148;-1.554;2023-05-08T10:27:08;101592.56;;;18.57;78.75
46464;BME280;32161;48.148;-1.554;2023-05-08T10:29:46;101597.81;;;18.64;79.39
46464;BME280;32161;48.148;-1.554;2023-05-08T10:32:20;101600.13;;;18.72;78.56
46464;BME280;32161;48.148;-1.554;2023-05-08T10:34:52;101596.19;;;18.95;74.87
46464;BME280;32161;48.148;-1.554;2023-05-08T10:37:22;101597.81;;;18.96;74.83
46464;BME280;32161;48.148;-1.554;2023-05-08T10:39:51;101582.94;;;18.97;73.17
46464;BME280;32161;48.148;-1.554;2023-05-08T10:42:20;101585.63;;;18.87;72.30
46464;BME280;32161;48.148;-1.554;2023-05-08T10:44:49;101575.38;;;18.77;72.73
46464;BME280;32161;48.148;-1.554;2023-05-08T10:47:23;101592.22;;;18.81;73.42
46464;BME280;32161;48.148;-1.554;2023-05-08T10:50:00;101600.41;;;18.75;73.18
46464;BME280;32161;48.148;-1.554;2023-05-08T10:52:38;101600.13;;;18.72;71.86
46464;BME280;32161;48.148;-1.554;2023-05-08T10:55:19;101593.25;;;18.74;72.40
46464;BME280;32161;48.148;-1.554;2023-05-08T10:58:10;101600.75;;;18.52;74.53
46464;BME280;32161;48.148;-1.554;2023-05-08T11:01:13;101599.69;;;18.53;75.66
46464;BME280;32161;48.148;-1.554;2023-05-08T11:03:46;101606.56;;;18.55;76.85
46464;BME280;32161;48.148;-1.554;2023-05-08T11:06:16;101587.28;;;18.55;78.54
46464;BME280;32161;48.148;-1.554;2023-05-08T11:08:51;101595.63;;;18.61;77.19
46464;BME280;32161;48.148;-1.554;2023-05-08T11:11:30;101593.16;;;18.64;76.15
46464;BME280;32161;48.148;-1.554;2023-05-08T11:14:11;101597.09;;;18.73;74.91
46464;BME280;32161;48.148;-1.554;2023-05-08T11:17:06;101599.19;;;18.61;76.45
46464;BME280;32161;48.148;-1.554;2023-05-08T11:19:35;101612.16;;;18.66;76.26
46464;BME280;32161;48.148;-1.554;2023-05-08T11:22:24;101620.28;;;18.77;74.34
46464;BME280;32161;48.148;-1.554;2023-05-08T11:25:03;101613.91;;;18.72;74.57
46464;BME280;32161;48.148;-1.554;2023-05-08T11:27:37;101600.41;;;18.75;73.64
46464;BME280;32161;48.148;-1.554;2023-05-08T11:30:32;101597.25;;;18.94;74.04
46464;BME280;32161;48.148;-1.554;2023-05-08T11:33:34;101574.03;;;18.80;73.17
46464;BME280;32161;48.148;-1.554;2023-05-08T11:36:13;101566.28;;;18.76;74.97
46464;BME280;32161;48.148;-1.554;2023-05-08T11:38:42;101578.69;;;18.79;76.01
46464;BME280;32161;48.148;-1.554;2023-05-08T11:41:11;101564.47;;;18.97;74.64
46464;BME280;32161;48.148;-1.554;2023-05-08T11:44:16;101580.84;;;19.14;76.13
46464;BME280;32161;48.148;-1.554;2023-05-08T11:46:50;101570.16;;;19.28;74.00
46464;BME280;32161;48.148;-1.554;2023-05-08T11:49:22;101578.66;;;19.16;74.93
46464;BME280;32161;48.148;-1.554;2023-05-08T11:51:52;101588.19;;;18.98;76.55
46464;BME280;32161;48.148;-1.554;2023-05-08T11:54:21;101601.47;;;19.07;77.63
46464;BME280;32161;48.148;-1.554;2023-05-08T11:56:50;101585.22;;;19.10;76.51
46464;BME280;32161;48.148;-1.554;2023-05-08T11:59:19;101581.63;;;19.05;75.97
46464;BME280;32161;48.148;-1.554;2023-05-08T12:01:48;101585.16;;;18.95;76.05
46464;BME280;32161;48.148;-1.554;2023-05-08T12:04:16;101593.06;;;18.86;76.39
46464;BME280;32161;48.148;-1.554;2023-05-08T12:06:45;101593.84;;;18.82;77.07
46464;BME280;32161;48.148;-1.554;2023-05-08T12:09:16;101592.16;;;18.75;77.57
46464;BME280;32161;48.148;-1.554;2023-05-08T12:11:44;101582.84;;;18.82;78.44
46464;BME280;32161;48.148;-1.554;2023-05-08T12:14:12;101571.31;;;18.85;77.12
46464;BME280;32161;48.148;-1.554;2023-05-08T12:16:40;101562.25;;;18.94;76.96
46464;BME280;32161;48.148;-1.554;2023-05-08T12:19:10;101560.88;;;18.92;75.69
46464;BME280;32161;48.148;-1.554;2023-05-08T12:21:38;101552.09;;;19.00;76.45
46464;BME280;32161;48.148;-1.554;2023-05-08T12:24:10;101552.72;;;19.12;78.54
46464;BME280;32161;48.148;-1.554;2023-05-08T12:26:38;101555.47;;;19.12;78.62
46464;BME280;32161;48.148;-1.554;2023-05-08T12:29:05;101546.97;;;19.24;78.23
46464;BME280;32161;48.148;-1.554;2023-05-08T12:31:34;101547.88;;;19.40;77.42
46464;BME280;32161;48.148;-1.554;2023-05-08T12:34:02;101542.38;;;19.40;77.99
46464;BME280;32161;48.148;-1.554;2023-05-08T12:36:33;101540.19;;;19.52;76.60
46464;BME280;32161;48.148;-1.554;2023-05-08T12:39:16;101528.34;;;19.46;78.42
46464;BME280;32161;48.148;-1.554;2023-05-08T12:41:48;101528.63;;;19.50;80.06
46464;BME280;32161;48.148;-1.554;2023-05-08T12:44:21;101532.03;;;19.72;77.81
46464;BME280;32161;48.148;-1.554;2023-05-08T12:46:49;101522.66;;;19.68;78.58
46464;BME280;32161;48.148;-1.554;2023-05-08T12:49:25;101543.03;;;19.62;77.54
46464;BME280;32161;48.148;-1.554;2023-05-08T12:52:01;101536.44;;;19.68;79.65
46464;BME280;32161;48.148;-1.554;2023-05-08T12:54:38;101523.75;;;19.83;78.00
46464;BME280;32161;48.148;-1.554;2023-05-08T12:57:10;101513.31;;;20.00;77.87
46464;BME280;32161;48.148;-1.554;2023-05-08T12:59:38;101498.38;;;20.06;77.70
46464;BME280;32161;48.148;-1.554;2023-05-08T13:02:15;101494.00;;;20.10;76.89